sensor_id;sensor_type;location;lat;lon;timestamp;temperature;humidity
68051;DHT22;54839;51.364;7.246;2023-04-24T00:00:09;10.40;99.90
68051;DHT22;54839;51.364;7.246;2023-04-24T00:02:35;10.40;99.90
68051;DHT22;54839;51.364;7.246;2023-04-24T00:05:06;10.30;99.90
68051;DHT22;54839;51.364;7.246;2023-04-24T00:07:32;10.20;99.90
68051;DHT22;54839;51.364;7.246;2023-04-24T00:09:58;10.20;99.90
68051;DHT22;54839;51.364;7.246;2023-04-24T00:12:24;10.10;99.90
68051;DHT22;54839;51.364;7.246;2023-04-24T00:14:49;10.00;99.90
68051;DHT22;54839;51.364;7.246;2023-04-24T00:17:15;10.10;99.90
68051;DHT22;54839;51.364;7.246;2023-04-24T00:19:41;10.00;99.90
68051;DHT22;54839;51.364;7.246;2023-04-24T00:22:06;10.00;99.90
68051;DHT22;54839;51.364;7.246;2023-04-24T00:24:32;10.10;99.90
68051;DHT22;54839;51.364;7.246;2023-04-24T00:26:58;10.00;99.90
68051;DHT22;54839;51.364;7.246;2023-04-24T00:29:23;9.90;99.90
68051;DHT22;54839;51.364;7.246;2023-04-24T00:31:49;10.00;99.90
68051;DHT22;54839;51.364;7.246;2023-04-24T00:34:15;9.90;99.90
68051;DHT22;54839;51.364;7.246;2023-04-24T00:36:40;9.80;99.90
68051;DHT22;54839;51.364;7.246;2023-04-24T00:39:06;9.90;99.90
68051;DHT22;54839;51.364;7.246;2023-04-24T00:41:34;9.90;99.90
68051;DHT22;54839;51.364;7.246;2023-04-24T00:43:59;9.90;99.90
68051;DHT22;54839;51.364;7.246;2023-04-24T00:46:25;9.70;99.90
68051;DHT22;54839;51.364;7.246;2023-04-24T00:48:51;9.80;99.90
68051;DHT22;54839;51.364;7.246;2023-04-24T00:51:16;9.60;99.90
68051;DHT22;54839;51.364;7.246;2023-04-24T00:53:42;9.70;99.90
68051;DHT22;54839;51.364;7.246;2023-04-24T00:56:08;9.70;99.90
68051;DHT22;54839;51.364;7.246;2023-04-24T00:58:33;9.60;99.90
68051;DHT22;54839;51.364;7.246;2023-04-24T01:00:59;9.60;99.90
68051;DHT22;54839;51.364;7.246;2023-04-24T01:03:29;9.60;99.90
68051;DHT22;54839;51.364;7.246;2023-04-24T01:05:55;9.60;99.90
68051;DHT22;54839;51.364;7.246;2023-04-24T01:08:23;9.50;99.90
68051;DHT22;54839;51.364;7.246;2023-04-24T01:10:52;9.50;99.90
68051;DHT22;54839;51.364;7.246;2023-04-24T01:13:18;9.60;99.90
68051;DHT22;54839;51.364;7.246;2023-04-24T01:15:44;9.70;99.90
68051;DHT22;54839;51.364;7.246;2023-04-24T01:18:10;9.70;99.90
68051;DHT22;54839;51.364;7.246;2023-04-24T01:20:37;9.70;99.90
68051;DHT22;54839;51.364;7.246;2023-04-24T01:23:05;9.80;99.90
68051;DHT22;54839;51.364;7.246;2023-04-24T01:25:31;9.90;99.90
68051;DHT22;54839;51.364;7.246;2023-04-24T01:27:57;9.90;99.90
68051;DHT22;54839;51.364;7.246;2023-04-24T01:30:23;9.80;99.90
68051;DHT22;54839;51.364;7.246;2023-04-24T01:32:49;9.90;99.90
68051;DHT22;54839;51.364;7.246;2023-04-24T01:35:14;9.90;99.90
68051;DHT22;54839;51.364;7.246;2023-04-24T01:37:40;9.80;99.90
68051;DHT22;54839;51.364;7.246;2023-04-24T01:40:06;9.80;99.90
68051;DHT22;54839;51.364;7.246;2023-04-24T01:42:33;9.80;99.90
68051;DHT22;54839;51.364;7.246;2023-04-24T01:44:59;9.70;99.90
68051;DHT22;54839;51.364;7.246;2023-04-24T01:47:25;9.60;99.90
68051;DHT22;54839;51.364;7.246;2023-04-24T01:49:51;9.60;99.90
68051;DHT22;54839;51.364;7.246;2023-04-24T01:52:17;9.60;99.90
68051;DHT22;54839;51.364;7.246;2023-04-24T01:54:44;9.70;99.90
68051;DHT22;54839;51.364;7.246;2023-04-24T01:57:10;9.50;99.90
68051;DHT22;54839;51.364;7.246;2023-04-24T01:59:35;9.60;99.90
68051;DHT22;54839;51.364;7.246;2023-04-24T02:02:02;9.60;99.90
68051;DHT22;54839;51.364;7.246;2023-04-24T02:04:28;9.60;99.90
68051;DHT22;54839;51.364;7.246;2023-04-24T02:06:53;9.50;99.90
68051;DHT22;54839;51.364;7.246;2023-04-24T02:09:19;9.20;99.90
68051;DHT22;54839;51.364;7.246;2023-04-24T02:11:44;9.20;99.90
68051;DHT22;54839;51.364;7.246;2023-04-24T02:14:10;9.20;99.90
68051;DHT22;54839;51.364;7.246;2023-04-24T02:16:35;8.90;99.90
68051;DHT22;54839;51.364;7.246;2023-04-24T02:19:02;8.70;99.90
68051;DHT22;54839;51.364;7.246;2023-04-24T02:21:27;8.70;99.90
68051;DHT22;54839;51.364;7.246;2023-04-24T02:23:53;8.70;99.90
68051;DHT22;54839;51.364;7.246;2023-04-24T02:26:19;8.50;99.90
68051;DHT22;54839;51.364;7.246;2023-04-24T02:28:46;8.40;99.90
68051;DHT22;54839;51.364;7.246;2023-04-24T02:31:11;8.40;99.90
68051;DHT22;54839;51.364;7.246;2023-04-24T02:33:37;8.30;99.90
68051;DHT22;54839;51.364;7.246;2023-04-24T02:36:03;8.40;99.90
68051;DHT22;54839;51.364;7.246;2023-04-24T02:38:29;8.40;99.90
68051;DHT22;54839;51.364;7.246;2023-04-24T02:40:54;8.50;99.90
68051;DHT22;54839;51.364;7.246;2023-04-24T02:43:20;8.50;99.90
68051;DHT22;54839;51.364;7.246;2023-04-24T02:45:46;8.50;99.90
68051;DHT22;54839;51.364;7.246;2023-04-24T02:48:11;8.50;99.90
68051;DHT22;54839;51.364;7.246;2023-04-24T02:50:37;8.60;99.90
68051;DHT22;54839;51.364;7.246;2023-04-24T02:53:03;8.60;99.90
68051;DHT22;54839;51.364;7.246;2023-04-24T02:55:28;8.60;99.90
68051;DHT22;54839;51.364;7.246;2023-04-24T02:57:54;8.60;99.90
68051;DHT22;54839;51.364;7.246;2023-04-24T03:00:20;8.60;99.90
68051;DHT22;54839;51.364;7.246;2023-04-24T03:02:45;8.60;99.90
68051;DHT22;54839;51.364;7.246;2023-04-24T03:05:11;8.50;99.90
68051;DHT22;54839;51.364;7.246;2023-04-24T03:07:37;8.70;99.90
68051;DHT22;54839;51.364;7.246;2023-04-24T03:10:04;8.70;99.90
68051;DHT22;54839;51.364;7.246;2023-04-24T03:12:31;8.60;99.90
68051;DHT22;54839;51.364;7.246;2023-04-24T03:14:56;8.50;99.90
68051;DHT22;54839;51.364;7.246;2023-04-24T03:17:22;8.60;99.90
68051;DHT22;54839;51.364;7.246;2023-04-24T03:19:47;8.70;99.90
68051;DHT22;54839;51.364;7.246;2023-04-24T03:22:13;8.70;99.90
68051;DHT22;54839;51.364;7.246;2023-04-24T03:24:38;8.70;99.90
68051;DHT22;54839;51.364;7.246;2023-04-24T03:27:04;8.60;99.90
68051;DHT22;54839;51.364;7.246;2023-04-24T03:29:30;8.60;99.90
68051;DHT22;54839;51.364;7.246;2023-04-24T03:31:55;8.70;99.90
68051;DHT22;54839;51.364;7.246;2023-04-24T03:34:21;8.70;99.90
68051;DHT22;54839;51.364;7.246;2023-04-24T03:36:46;8.60;99.90
68051;DHT22;54839;51.364;7.246;2023-04-24T03:39:14;8.70;99.90
68051;DHT22;54839;51.364;7.246;2023-04-24T03:41:40;8.70;99.90
68051;DHT22;54839;51.364;7.246;2023-04-24T03:44:05;8.60;99.90
68051;DHT22;54839;51.364;7.246;2023-04-24T03:46:31;8.70;99.90
68051;DHT22;54839;51.364;7.246;2023-04-24T03:48:56;8.70;99.90
68051;DHT22;54839;51.364;7.246;2023-04-24T03:51:22;8.70;99.90
68051;DHT22;54839;51.364;7.246;2023-04-24T03:53:49;8.70;99.90
68051;DHT22;54839;51.364;7.246;2023-04-24T03:56:14;8.70;99.90
68051;DHT22;54839;51.364;7.246;2023-04-24T03:58:40;8.70;99.90
68051;DHT22;54839;51.364;7.246;2023-04-24T04:01:05;8.60;99.90
68051;DHT22;54839;51.364;7.246;2023-04-24T04:03:31;8.60;99.90
68051;DHT22;54839;51.364;7.246;2023-04-24T04:05:57;8.60;99.90
68051;DHT22;54839;51.364;7.246;2023-04-24T04:08:22;8.70;99.90
68051;DHT22;54839;51.364;7.246;2023-04-24T04:10:48;8.70;99.90
68051;DHT22;54839;51.364;7.246;2023-04-24T04:13:14;8.60;99.90
68051;DHT22;54839;51.364;7.246;2023-04-24T04:15:39;8.70;99.90
68051;DHT22;54839;51.364;7.246;2023-04-24T04:18:05;8.80;99.90
68051;DHT22;54839;51.364;7.246;2023-04-24T04:20:31;8.80;99.90
68051;DHT22;54839;51.364;7.246;2023-04-24T04:22:56;8.70;99.90
68051;DHT22;54839;51.364;7.246;2023-04-24T04:25:22;8.80;99.90
68051;DHT22;54839;51.364;7.246;2023-04-24T04:27:48;8.70;99.90
68051;DHT22;54839;51.364;7.246;2023-04-24T04:30:14;8.80;99.90
68051;DHT22;54839;51.364;7.246;2023-04-24T04:32:39;8.80;99.90
68051;DHT22;54839;51.364;7.246;2023-04-24T04:35:05;8.70;99.90
68051;DHT22;54839;51.364;7.246;2023-04-24T04:37:32;8.80;99.90
68051;DHT22;54839;51.364;7.246;2023-04-24T04:39:59;8.70;99.90
68051;DHT22;54839;51.364;7.246;2023-04-24T04:42:25;8.80;99.90
68051;DHT22;54839;51.364;7.246;2023-04-24T04:44:52;8.80;99.90
68051;DHT22;54839;51.364;7.246;2023-04-24T04:47:18;8.80;99.90
68051;DHT22;54839;51.364;7.246;2023-04-24T04:49:43;8.60;99.90
68051;DHT22;54839;51.364;7.246;2023-04-24T04:52:09;8.70;99.90
68051;DHT22;54839;51.364;7.246;2023-04-24T04:54:35;8.70;99.90
68051;DHT22;54839;51.364;7.246;2023-04-24T04:57:00;8.60;99.90
68051;DHT22;54839;51.364;7.246;2023-04-24T04:59:26;8.70;99.90
68051;DHT22;54839;51.364;7.246;2023-04-24T05:01:52;8.70;99.90
68051;DHT22;54839;51.364;7.246;2023-04-24T05:04:18;8.70;99.90
68051;DHT22;54839;51.364;7.246;2023-04-24T05:06:43;8.60;99.90
68051;DHT22;54839;51.364;7.246;2023-04-24T05:09:09;8.60;99.90
68051;DHT22;54839;51.364;7.246;2023-04-24T05:11:35;8.70;99.90
68051;DHT22;54839;51.364;7.246;2023-04-24T05:14:00;8.70;99.90
68051;DHT22;54839;51.364;7.246;2023-04-24T05:16:26;8.90;99.90
68051;DHT22;54839;51.364;7.246;2023-04-24T05:18:51;8.90;99.90
68051;DHT22;54839;51.364;7.246;2023-04-24T05:21:17;8.80;99.90
68051;DHT22;54839;51.364;7.246;2023-04-24T05:23:42;8.60;99.90
68051;DHT22;54839;51.364;7.246;2023-04-24T05:26:08;8.60;99.90
68051;DHT22;54839;51.364;7.246;2023-04-24T05:28:34;8.50;99.90
68051;DHT22;54839;51.364;7.246;2023-04-24T05:31:02;8.60;99.90
68051;DHT22;54839;51.364;7.246;2023-04-24T05:33:27;8.60;99.90
68051;DHT22;54839;51.364;7.246;2023-04-24T05:35:53;8.30;99.90
68051;DHT22;54839;51.364;7.246;2023-04-24T05:38:19;8.10;99.90
68051;DHT22;54839;51.364;7.246;2023-04-24T05:40:45;7.90;99.90
68051;DHT22;54839;51.364;7.246;2023-04-24T05:43:11;7.90;99.90
68051;DHT22;54839;51.364;7.246;2023-04-24T05:45:37;7.90;99.90
68051;DHT22;54839;51.364;7.246;2023-04-24T05:48:03;7.80;99.90
68051;DHT22;54839;51.364;7.246;2023-04-24T05:50:29;7.80;99.90
68051;DHT22;54839;51.364;7.246;2023-04-24T05:52:54;7.80;99.90
68051;DHT22;54839;51.364;7.246;2023-04-24T05:55:20;7.90;99.90
68051;DHT22;54839;51.364;7.246;2023-04-24T05:57:46;8.10;99.90
68051;DHT22;54839;51.364;7.246;2023-04-24T06:00:12;7.90;99.90
68051;DHT22;54839;51.364;7.246;2023-04-24T06:02:38;8.00;99.90
68051;DHT22;54839;51.364;7.246;2023-04-24T06:05:04;8.00;99.90
68051;DHT22;54839;51.364;7.246;2023-04-24T06:07:30;8.20;99.90
68051;DHT22;54839;51.364;7.246;2023-04-24T06:09:56;8.30;99.90
68051;DHT22;54839;51.364;7.246;2023-04-24T06:12:22;8.20;99.90
68051;DHT22;54839;51.364;7.246;2023-04-24T06:14:48;8.30;99.90
68051;DHT22;54839;51.364;7.246;2023-04-24T06:17:14;8.20;99.90
68051;DHT22;54839;51.364;7.246;2023-04-24T06:19:39;8.20;99.90
68051;DHT22;54839;51.364;7.246;2023-04-24T06:22:05;8.30;99.90
68051;DHT22;54839;51.364;7.246;2023-04-24T06:24:31;8.30;99.90
68051;DHT22;54839;51.364;7.246;2023-04-24T06:26:56;8.20;99.90
68051;DHT22;54839;51.364;7.246;2023-04-24T06:29:24;8.20;99.90
68051;DHT22;54839;51.364;7.246;2023-04-24T06:31:49;8.00;99.90
68051;DHT22;54839;51.364;7.246;2023-04-24T06:34:15;8.10;99.90
68051;DHT22;54839;51.364;7.246;2023-04-24T06:36:41;8.20;99.90
68051;DHT22;54839;51.364;7.246;2023-04-24T06:39:06;8.20;99.90
68051;DHT22;54839;51.364;7.246;2023-04-24T06:41:32;8.30;99.90
68051;DHT22;54839;51.364;7.246;2023-04-24T06:43:57;8.50;99.90
68051;DHT22;54839;51.364;7.246;2023-04-24T06:46:23;8.40;99.90
68051;DHT22;54839;51.364;7.246;2023-04-24T06:48:52;8.50;99.90
68051;DHT22;54839;51.364;7.246;2023-04-24T06:51:17;8.40;99.90
68051;DHT22;54839;51.364;7.246;2023-04-24T06:53:43;8.30;99.90
68051;DHT22;54839;51.364;7.246;2023-04-24T06:56:09;8.30;99.90
68051;DHT22;54839;51.364;7.246;2023-04-24T06:58:35;8.20;99.90
68051;DHT22;54839;51.364;7.246;2023-04-24T07:01:00;8.20;99.90
68051;DHT22;54839;51.364;7.246;2023-04-24T07:03:26;8.20;99.90
68051;DHT22;54839;51.364;7.246;2023-04-24T07:05:51;8.40;99.90
68051;DHT22;54839;51.364;7.246;2023-04-24T07:08:18;8.30;99.90
68051;DHT22;54839;51.364;7.246;2023-04-24T07:10:45;8.70;99.90
68051;DHT22;54839;51.364;7.246;2023-04-24T07:13:11;8.60;99.90
68051;DHT22;54839;51.364;7.246;2023-04-24T07:15:37;8.40;99.90
68051;DHT22;54839;51.364;7.246;2023-04-24T07:18:02;8.10;99.90
68051;DHT22;54839;51.364;7.246;2023-04-24T07:20:28;8.00;99.90
68051;DHT22;54839;51.364;7.246;2023-04-24T07:22:53;7.80;99.90
68051;DHT22;54839;51.364;7.246;2023-04-24T07:25:19;7.70;99.90
68051;DHT22;54839;51.364;7.246;2023-04-24T07:27:45;7.80;99.90
68051;DHT22;54839;51.364;7.246;2023-04-24T07:30:11;7.90;99.90
68051;DHT22;54839;51.364;7.246;2023-04-24T07:32:37;7.90;99.90
68051;DHT22;54839;51.364;7.246;2023-04-24T07:35:02;8.00;99.90
68051;DHT22;54839;51.364;7.246;2023-04-24T07:37:28;8.00;99.90
68051;DHT22;54839;51.364;7.246;2023-04-24T07:39:54;7.90;99.90
68051;DHT22;54839;51.364;7.246;2023-04-24T07:42:20;8.10;99.90
68051;DHT22;54839;51.364;7.246;2023-04-24T07:44:46;8.10;99.90
68051;DHT22;54839;51.364;7.246;2023-04-24T07:47:13;8.00;99.90
68051;DHT22;54839;51.364;7.246;2023-04-24T07:49:41;8.00;99.90
68051;DHT22;54839;51.364;7.246;2023-04-24T07:52:07;8.00;99.90
68051;DHT22;54839;51.364;7.246;2023-04-24T07:54:32;7.90;99.90
68051;DHT22;54839;51.364;7.246;2023-04-24T07:56:58;7.90;99.90
68051;DHT22;54839;51.364;7.246;2023-04-24T07:59:23;7.90;99.90
68051;DHT22;54839;51.364;7.246;2023-04-24T08:01:49;7.90;99.90
68051;DHT22;54839;51.364;7.246;2023-04-24T08:04:15;7.80;99.90
68051;DHT22;54839;51.364;7.246;2023-04-24T08:06:40;7.80;99.90
68051;DHT22;54839;51.364;7.246;2023-04-24T08:09:06;7.60;99.90
68051;DHT22;54839;51.364;7.246;2023-04-24T08:11:31;7.60;99.90
68051;DHT22;54839;51.364;7.246;2023-04-24T08:13:58;7.60;99.90
68051;DHT22;54839;51.364;7.246;2023-04-24T08:16:23;7.70;99.90
68051;DHT22;54839;51.364;7.246;2023-04-24T08:18:49;7.70;99.90
68051;DHT22;54839;51.364;7.246;2023-04-24T08:21:15;7.60;99.90
68051;DHT22;54839;51.364;7.246;2023-04-24T08:23:42;7.70;99.90
68051;DHT22;54839;51.364;7.246;2023-04-24T08:26:08;7.70;99.90
68051;DHT22;54839;51.364;7.246;2023-04-24T08:28:34;7.50;99.90
68051;DHT22;54839;51.364;7.246;2023-04-24T08:30:59;7.50;99.90
68051;DHT22;54839;51.364;7.246;2023-04-24T08:33:26;7.50;99.90
68051;DHT22;54839;51.364;7.246;2023-04-24T08:35:52;7.50;99.90
68051;DHT22;54839;51.364;7.246;2023-04-24T08:38:18;7.40;99.90
68051;DHT22;54839;51.364;7.246;2023-04-24T08:40:44;7.10;99.90
68051;DHT22;54839;51.364;7.246;2023-04-24T08:43:12;6.90;99.90
68051;DHT22;54839;51.364;7.246;2023-04-24T08:45:38;7.00;99.90
68051;DHT22;54839;51.364;7.246;2023-04-24T08:48:04;7.00;99.90
68051;DHT22;54839;51.364;7.246;2023-04-24T08:50:31;7.00;99.90
68051;DHT22;54839;51.364;7.246;2023-04-24T08:52:57;6.90;99.90
68051;DHT22;54839;51.364;7.246;2023-04-24T08:55:24;6.90;99.90
68051;DHT22;54839;51.364;7.246;2023-04-24T08:57:51;6.80;99.90
68051;DHT22;54839;51.364;7.246;2023-04-24T09:00:19;6.80;99.90
68051;DHT22;54839;51.364;7.246;2023-04-24T09:02:47;6.90;99.90
68051;DHT22;54839;51.364;7.246;2023-04-24T09:05:14;6.80;99.90
68051;DHT22;54839;51.364;7.246;2023-04-24T09:07:44;7.00;99.90
68051;DHT22;54839;51.364;7.246;2023-04-24T09:10:10;6.90;99.90
68051;DHT22;54839;51.364;7.246;2023-04-24T09:12:36;7.00;99.90
68051;DHT22;54839;51.364;7.246;2023-04-24T09:15:02;7.00;99.90
68051;DHT22;54839;51.364;7.246;2023-04-24T09:17:30;7.10;99.90
68051;DHT22;54839;51.364;7.246;2023-04-24T09:19:56;7.30;99.90
68051;DHT22;54839;51.364;7.246;2023-04-24T09:22:21;7.20;99.90
68051;DHT22;54839;51.364;7.246;2023-04-24T09:24:47;7.30;99.90
68051;DHT22;54839;51.364;7.246;2023-04-24T09:27:13;7.60;99.90
68051;DHT22;54839;51.364;7.246;2023-04-24T09:29:53;7.50;99.90
68051;DHT22;54839;51.364;7.246;2023-04-24T09:32:21;7.60;99.90
68051;DHT22;54839;51.364;7.246;2023-04-24T09:34:48;7.50;99.90
68051;DHT22;54839;51.364;7.246;2023-04-24T09:37:30;7.40;99.90
68051;DHT22;54839;51.364;7.246;2023-04-24T09:40:18;7.30;99.90
68051;DHT22;54839;51.364;7.246;2023-04-24T09:42:54;7.30;99.90
68051;DHT22;54839;51.364;7.246;2023-04-24T09:45:21;7.30;99.90
68051;DHT22;54839;51.364;7.246;2023-04-24T09:47:51;7.20;99.90
68051;DHT22;54839;51.364;7.246;2023-04-24T09:50:18;7.30;99.90
68051;DHT22;54839;51.364;7.246;2023-04-24T09:52:55;7.20;99.90
68051;DHT22;54839;51.364;7.246;2023-04-24T09:55:21;7.20;99.90
68051;DHT22;54839;51.364;7.246;2023-04-24T09:57:48;7.10;99.90
68051;DHT22;54839;51.364;7.246;2023-04-24T10:00:25;7.10;99.90
68051;DHT22;54839;51.364;7.246;2023-04-24T10:03:02;7.10;99.90
68051;DHT22;54839;51.364;7.246;2023-04-24T10:05:36;6.90;99.90
68051;DHT22;54839;51.364;7.246;2023-04-24T10:08:02;7.00;99.90
68051;DHT22;54839;51.364;7.246;2023-04-24T10:10:29;7.00;99.90
68051;DHT22;54839;51.364;7.246;2023-04-24T10:12:55;7.00;99.90
68051;DHT22;54839;51.364;7.246;2023-04-24T10:15:21;7.00;99.90
68051;DHT22;54839;51.364;7.246;2023-04-24T10:17:48;7.00;99.90
68051;DHT22;54839;51.364;7.246;2023-04-24T10:20:18;7.00;99.90
68051;DHT22;54839;51.364;7.246;2023-04-24T10:22:47;7.00;99.90
68051;DHT22;54839;51.364;7.246;2023-04-24T10:25:16;7.00;99.90
68051;DHT22;54839;51.364;7.246;2023-04-24T10:27:42;6.90;99.90
68051;DHT22;54839;51.364;7.246;2023-04-24T10:30:08;7.00;99.90
68051;DHT22;54839;51.364;7.246;2023-04-24T10:32:36;7.00;99.90
68051;DHT22;54839;51.364;7.246;2023-04-24T10:35:02;7.10;99.90
68051;DHT22;54839;51.364;7.246;2023-04-24T10:37:28;7.10;99.90
68051;DHT22;54839;51.364;7.246;2023-04-24T10:39:54;7.10;99.90
68051;DHT22;54839;51.364;7.246;2023-04-24T10:42:21;7.40;99.90
68051;DHT22;54839;51.364;7.246;2023-04-24T10:44:48;7.40;99.90
68051;DHT22;54839;51.364;7.246;2023-04-24T10:47:15;7.40;99.90
68051;DHT22;54839;51.364;7.246;2023-04-24T10:49:40;7.40;99.90
68051;DHT22;54839;51.364;7.246;2023-04-24T10:52:06;7.20;99.90
68051;DHT22;54839;51.364;7.246;2023-04-24T10:54:35;7.20;99.90
68051;DHT22;54839;51.364;7.246;2023-04-24T10:59:49;7.30;99.90
68051;DHT22;54839;51.364;7.246;2023-04-24T11:02:16;7.30;99.90
68051;DHT22;54839;51.364;7.246;2023-04-24T11:04:43;7.30;99.90
68051;DHT22;54839;51.364;7.246;2023-04-24T11:07:09;7.30;99.90
68051;DHT22;54839;51.364;7.246;2023-04-24T11:09:35;7.30;99.90
68051;DHT22;54839;51.364;7.246;2023-04-24T11:12:10;7.40;99.90
68051;DHT22;54839;51.364;7.246;2023-04-24T11:17:37;7.80;99.90
68051;DHT22;54839;51.364;7.246;2023-04-24T11:20:11;8.00;99.90
68051;DHT22;54839;51.364;7.246;2023-04-24T11:22:38;8.00;99.90
68051;DHT22;54839;51.364;7.246;2023-04-24T11:25:08;8.10;99.90
68051;DHT22;54839;51.364;7.246;2023-04-24T11:27:42;8.00;99.90
68051;DHT22;54839;51.364;7.246;2023-04-24T11:30:09;8.00;99.90
68051;DHT22;54839;51.364;7.246;2023-04-24T11:32:37;8.00;99.90
68051;DHT22;54839;51.364;7.246;2023-04-24T11:35:08;8.10;99.90
68051;DHT22;54839;51.364;7.246;2023-04-24T11:37:40;8.10;99.90
68051;DHT22;54839;51.364;7.246;2023-04-24T11:40:09;8.10;99.90
68051;DHT22;54839;51.364;7.246;2023-04-24T11:42:40;8.10;99.90
68051;DHT22;54839;51.364;7.246;2023-04-24T11:45:10;8.20;99.90
68051;DHT22;54839;51.364;7.246;2023-04-24T11:47:37;8.20;99.90
68051;DHT22;54839;51.364;7.246;2023-04-24T11:50:04;8.30;99.90
68051;DHT22;54839;51.364;7.246;2023-04-24T11:52:31;8.80;99.90
68051;DHT22;54839;51.364;7.246;2023-04-24T11:54:57;9.00;99.90
68051;DHT22;54839;51.364;7.246;2023-04-24T11:57:25;9.10;99.90
68051;DHT22;54839;51.364;7.246;2023-04-24T11:59:53;9.40;99.90
68051;DHT22;54839;51.364;7.246;2023-04-24T12:02:26;9.40;99.90
68051;DHT22;54839;51.364;7.246;2023-04-24T12:04:53;9.50;99.90
68051;DHT22;54839;51.364;7.246;2023-04-24T12:07:19;9.30;99.90
68051;DHT22;54839;51.364;7.246;2023-04-24T12:09:47;9.30;99.90
68051;DHT22;54839;51.364;7.246;2023-04-24T12:12:14;9.40;99.90
68051;DHT22;54839;51.364;7.246;2023-04-24T12:14:50;9.60;99.90
68051;DHT22;54839;51.364;7.246;2023-04-24T12:17:17;9.90;99.90
68051;DHT22;54839;51.364;7.246;2023-04-24T12:19:47;10.30;99.90
68051;DHT22;54839;51.364;7.246;2023-04-24T12:22:13;10.30;99.90
68051;DHT22;54839;51.364;7.246;2023-04-24T12:25:02;10.70;99.90
68051;DHT22;54839;51.364;7.246;2023-04-24T12:27:32;10.60;99.90
68051;DHT22;54839;51.364;7.246;2023-04-24T12:30:03;10.30;99.90
68051;DHT22;54839;51.364;7.246;2023-04-24T12:32:29;10.10;99.90
68051;DHT22;54839;51.364;7.246;2023-04-24T12:34:55;9.70;99.90
68051;DHT22;54839;51.364;7.246;2023-04-24T12:37:26;9.50;99.90
68051;DHT22;54839;51.364;7.246;2023-04-24T12:40:02;9.50;99.90
68051;DHT22;54839;51.364;7.246;2023-04-24T12:42:30;9.40;99.90
68051;DHT22;54839;51.364;7.246;2023-04-24T12:45:06;9.30;99.90
68051;DHT22;54839;51.364;7.246;2023-04-24T12:47:33;9.20;99.90
68051;DHT22;54839;51.364;7.246;2023-04-24T12:50:00;9.20;99.90
68051;DHT22;54839;51.364;7.246;2023-04-24T12:52:27;9.20;99.90
68051;DHT22;54839;51.364;7.246;2023-04-24T12:54:53;9.20;99.90
68051;DHT22;54839;51.364;7.246;2023-04-24T12:57:20;9.00;99.90
68051;DHT22;54839;51.364;7.246;2023-04-24T12:59:45;8.80;99.90
68051;DHT22;54839;51.364;7.246;2023-04-24T13:02:11;9.00;99.90
68051;DHT22;54839;51.364;7.246;2023-04-24T13:04:37;8.90;99.90
68051;DHT22;54839;51.364;7.246;2023-04-24T13:07:02;9.10;99.90
68051;DHT22;54839;51.364;7.246;2023-04-24T13:09:28;9.40;99.90
68051;DHT22;54839;51.364;7.246;2023-04-24T13:11:54;9.70;99.90
68051;DHT22;54839;51.364;7.246;2023-04-24T13:14:21;10.40;99.90
68051;DHT22;54839;51.364;7.246;2023-04-24T13:16:47;10.70;99.90
68051;DHT22;54839;51.364;7.246;2023-04-24T13:19:12;11.00;99.90
68051;DHT22;54839;51.364;7.246;2023-04-24T13:21:38;11.30;99.90
68051;DHT22;54839;51.364;7.246;2023-04-24T13:24:04;11.50;99.90
68051;DHT22;54839;51.364;7.246;2023-04-24T13:26:30;11.00;99.90
68051;DHT22;54839;51.364;7.246;2023-04-24T13:28:56;10.30;99.90
68051;DHT22;54839;51.364;7.246;2023-04-24T13:31:21;10.00;99.90
68051;DHT22;54839;51.364;7.246;2023-04-24T13:33:47;9.80;99.90
68051;DHT22;54839;51.364;7.246;2023-04-24T13:36:13;9.70;99.90
68051;DHT22;54839;51.364;7.246;2023-04-24T13:38:38;9.70;99.90
68051;DHT22;54839;51.364;7.246;2023-04-24T13:41:04;9.80;99.90
68051;DHT22;54839;51.364;7.246;2023-04-24T13:43:29;9.90;99.90
68051;DHT22;54839;51.364;7.246;2023-04-24T13:45:55;9.80;99.90
68051;DHT22;54839;51.364;7.246;2023-04-24T13:48:20;9.70;99.90
68051;DHT22;54839;51.364;7.246;2023-04-24T13:50:46;10.00;99.90
68051;DHT22;54839;51.364;7.246;2023-04-24T13:53:13;10.10;99.90
68051;DHT22;54839;51.364;7.246;2023-04-24T13:55:39;9.90;99.90
68051;DHT22;54839;51.364;7.246;2023-04-24T13:58:05;9.80;99.90
68051;DHT22;54839;51.364;7.246;2023-04-24T14:00:31;9.70;99.90
68051;DHT22;54839;51.364;7.246;2023-04-24T14:02:57;9.70;99.90
68051;DHT22;54839;51.364;7.246;2023-04-24T14:05:22;9.90;99.90
68051;DHT22;54839;51.364;7.246;2023-04-24T14:07:48;10.00;99.90
68051;DHT22;54839;51.364;7.246;2023-04-24T14:10:14;10.30;99.90
68051;DHT22;54839;51.364;7.246;2023-04-24T14:12:40;11.30;99.90
68051;DHT22;54839;51.364;7.246;2023-04-24T14:15:06;12.40;99.90
68051;DHT22;54839;51.364;7.246;2023-04-24T14:17:31;12.00;99.90
68051;DHT22;54839;51.364;7.246;2023-04-24T14:19:57;11.40;99.90
68051;DHT22;54839;51.364;7.246;2023-04-24T14:22:25;10.80;99.90
68051;DHT22;54839;51.364;7.246;2023-04-24T14:24:50;10.30;99.90
68051;DHT22;54839;51.364;7.246;2023-04-24T14:27:16;10.10;99.90
68051;DHT22;54839;51.364;7.246;2023-04-24T14:29:41;10.00;99.90
68051;DHT22;54839;51.364;7.246;2023-04-24T14:32:07;10.10;99.90
68051;DHT22;54839;51.364;7.246;2023-04-24T14:34:34;10.30;99.90
68051;DHT22;54839;51.364;7.246;2023-04-24T14:37:00;10.50;99.90
68051;DHT22;54839;51.364;7.246;2023-04-24T14:39:25;11.00;99.90
68051;DHT22;54839;51.364;7.246;2023-04-24T14:41:51;11.10;99.90
68051;DHT22;54839;51.364;7.246;2023-04-24T14:44:16;11.40;99.90
68051;DHT22;54839;51.364;7.246;2023-04-24T14:46:42;11.40;99.90
68051;DHT22;54839;51.364;7.246;2023-04-24T14:49:08;11.10;99.90
68051;DHT22;54839;51.364;7.246;2023-04-24T14:51:36;11.30;99.90
68051;DHT22;54839;51.364;7.246;2023-04-24T14:54:01;11.00;99.90
68051;DHT22;54839;51.364;7.246;2023-04-24T14:56:27;10.80;99.90
68051;DHT22;54839;51.364;7.246;2023-04-24T14:58:52;10.70;99.90
68051;DHT22;54839;51.364;7.246;2023-04-24T15:01:18;10.50;99.90
68051;DHT22;54839;51.364;7.246;2023-04-24T15:03:44;10.30;99.90
68051;DHT22;54839;51.364;7.246;2023-04-24T15:06:09;10.20;99.90
68051;DHT22;54839;51.364;7.246;2023-04-24T15:08:35;10.30;99.90
68051;DHT22;54839;51.364;7.246;2023-04-24T15:11:01;10.20;99.90
68051;DHT22;54839;51.364;7.246;2023-04-24T15:13:26;10.20;99.90
68051;DHT22;54839;51.364;7.246;2023-04-24T15:15:52;10.20;99.90
68051;DHT22;54839;51.364;7.246;2023-04-24T15:18:18;10.10;99.90
68051;DHT22;54839;51.364;7.246;2023-04-24T15:20:43;10.20;99.90
68051;DHT22;54839;51.364;7.246;2023-04-24T15:23:09;10.20;99.90
68051;DHT22;54839;51.364;7.246;2023-04-24T15:25:35;10.30;99.90
68051;DHT22;54839;51.364;7.246;2023-04-24T15:28:00;10.50;99.90
68051;DHT22;54839;51.364;7.246;2023-04-24T15:30:27;10.50;99.90
68051;DHT22;54839;51.364;7.246;2023-04-24T15:32:52;10.70;99.90
68051;DHT22;54839;51.364;7.246;2023-04-24T15:35:18;10.80;99.90
68051;DHT22;54839;51.364;7.246;2023-04-24T15:37:44;11.10;99.90
68051;DHT22;54839;51.364;7.246;2023-04-24T15:40:10;11.20;99.90
68051;DHT22;54839;51.364;7.246;2023-04-24T15:42:38;11.30;99.90